首页
METAR-TAF:

METAR-TAF

机场 :

恰斯拉夫, 捷克共和国

纬度: 49-56-23N, 经度: 15-22-55E, 海拔: 242米

当前天气观测

该预报发布于1小时和5分钟前的10:00 UTC
风速8节,风向东南
温度 11°C
湿度 76%
气压 1012 hPa
能见度10公里或以上
阴天层高于2700英尺

METAR: LKCV 221000Z 13008KT 9999 OVC027 11/07 Q1012 NOSIG RMK BLU BLU

时间: 12:05 (11:05 UTC)

预报

该预报发布于6小时和5分钟前的05:00 UTC
预报有效从22日的 06点(UTC)到 23日的 06点(UTC)
风速8节,风向东南
能见度10公里或以上
多云层高于2200英尺
短暂存在
从 22日的 06点(UTC)到 22日的 09点(UTC)
阴天层高于1300英尺
成为
从 22日的 07点(UTC)到 22日的 10点(UTC)
风速12节,风向南转南东
成为
从 22日的 10点(UTC)到 22日的 13点(UTC)
风速16节,风向南转南东
能见度10公里或以上
多云层高于2500英尺
短暂存在
从 22日的 10点(UTC)到 22日的 22点(UTC)
风速17节,风向南转南东,有时为27节阵风
短暂存在
从 22日的 22点(UTC)到 23日的 06点(UTC)
风速20节,风向南转南东,有时为32节阵风

TAF: LKCV 220500Z 2206/2306 14008KT 9999 BKN022 TEMPO 2206/2209 OVC013 BECMG 2207/2210 15012KT BECMG 2210/2213 15016KT 9999 BKN025 TEMPO 2210/2222 15017G27KT TEMPO 2222/2306 15020G32KT

超过4000个机场的气象观测和天气预报(METAR&TAF报告)。

可查询的气象台以黄色和红色小点在地图上表示。

将鼠标移到小点上方,可查看气象台名称。

然后点击查看天气观测和预报。

如需切换地图:点击带黑十字的绿色按钮放大地图;点击带横线的绿色按钮缩小地图;或者点击绿色箭头查看邻近地区的地图。


METAR-TAF: